sensor_id;sensor_type;location;lat;lon;timestamp;pressure;altitude;pressure_sealevel;temperature;humidity
51178;BME280;37243;49.814;8.652;2022-12-18T00:02:03;101544.81;;;26.90;20.27
51178;BME280;37243;49.814;8.652;2022-12-18T00:04:31;101547.56;;;26.90;20.05
51178;BME280;37243;49.814;8.652;2022-12-18T00:07:00;101544.81;;;26.90;20.67
51178;BME280;37243;49.814;8.652;2022-12-18T00:09:28;101543.72;;;26.91;20.33
51178;BME280;37243;49.814;8.652;2022-12-18T00:11:56;101535.16;;;26.92;19.91
51178;BME280;37243;49.814;8.652;2022-12-18T00:14:24;101526.06;;;26.92;20.00
51178;BME280;37243;49.814;8.652;2022-12-18T00:16:53;101526.06;;;26.92;20.47
51178;BME280;37243;49.814;8.652;2022-12-18T00:19:26;101527.69;;;26.93;19.77
51178;BME280;37243;49.814;8.652;2022-12-18T00:21:54;101531.25;;;26.93;20.26
51178;BME280;37243;49.814;8.652;2022-12-18T00:24:23;101537.59;;;26.94;20.72
51178;BME280;37243;49.814;8.652;2022-12-18T00:26:51;101535.94;;;26.93;20.03
51178;BME280;37243;49.814;8.652;2022-12-18T00:29:19;101546.69;;;26.94;19.83
51178;BME280;37243;49.814;8.652;2022-12-18T00:31:48;101562.38;;;26.94;19.88
51178;BME280;37243;49.814;8.652;2022-12-18T00:34:16;101565.13;;;26.94;20.07
51178;BME280;37243;49.814;8.652;2022-12-18T00:36:47;101567.88;;;26.94;19.39
51178;BME280;37243;49.814;8.652;2022-12-18T00:39:16;101549.72;;;26.93;19.47
51178;BME280;37243;49.814;8.652;2022-12-18T00:41:44;101545.84;;;26.94;19.63
51178;BME280;37243;49.814;8.652;2022-12-18T00:44:25;101541.47;;;26.93;19.92
51178;BME280;37243;49.814;8.652;2022-12-18T00:46:53;101534.34;;;26.92;19.76
51178;BME280;37243;49.814;8.652;2022-12-18T00:49:21;101535.44;;;26.91;19.92
51178;BME280;37243;49.814;8.652;2022-12-18T00:51:54;101544.81;;;26.90;19.57
51178;BME280;37243;49.814;8.652;2022-12-18T00:54:23;101536.06;;;26.88;19.61
51178;BME280;37243;49.814;8.652;2022-12-18T00:56:51;101519.03;;;26.86;20.27
51178;BME280;37243;49.814;8.652;2022-12-18T00:59:20;101529.53;;;26.84;19.99
51178;BME280;37243;49.814;8.652;2022-12-18T01:01:48;101536.66;;;26.85;20.43
51178;BME280;37243;49.814;8.652;2022-12-18T01:04:17;101541.66;;;26.83;20.14
51178;BME280;37243;49.814;8.652;2022-12-18T01:06:45;101540.00;;;26.82;20.04
51178;BME280;37243;49.814;8.652;2022-12-18T01:09:16;101543.38;;;26.79;20.31
51178;BME280;37243;49.814;8.652;2022-12-18T01:11:44;101542.50;;;26.78;20.54
51178;BME280;37243;49.814;8.652;2022-12-18T01:14:12;101537.00;;;26.78;20.46
51178;BME280;37243;49.814;8.652;2022-12-18T01:16:41;101533.47;;;26.78;20.43
51178;BME280;37243;49.814;8.652;2022-12-18T01:19:09;101529.06;;;26.77;19.90
51178;BME280;37243;49.814;8.652;2022-12-18T01:21:37;101530.19;;;26.76;20.44
51178;BME280;37243;49.814;8.652;2022-12-18T01:24:06;101531.81;;;26.77;20.60
51178;BME280;37243;49.814;8.652;2022-12-18T01:26:36;101537.31;;;26.77;20.08
51178;BME280;37243;49.814;8.652;2022-12-18T01:29:05;101543.94;;;26.76;19.98
51178;BME280;37243;49.814;8.652;2022-12-18T01:31:33;101542.81;;;26.77;20.47
51178;BME280;37243;49.814;8.652;2022-12-18T01:34:03;101539.25;;;26.76;20.02
51178;BME280;37243;49.814;8.652;2022-12-18T01:36:33;101537.31;;;26.77;19.93
51178;BME280;37243;49.814;8.652;2022-12-18T01:39:04;101550.25;;;26.76;19.77
51178;BME280;37243;49.814;8.652;2022-12-18T01:41:36;101567.59;;;26.77;19.19
51178;BME280;37243;49.814;8.652;2022-12-18T01:44:52;101561.59;;;26.75;19.32
51178;BME280;37243;49.814;8.652;2022-12-18T01:47:24;101564.03;;;26.76;19.74
51178;BME280;37243;49.814;8.652;2022-12-18T01:49:54;101571.47;;;26.76;19.95
51178;BME280;37243;49.814;8.652;2022-12-18T01:52:24;101567.94;;;26.75;19.26
51178;BME280;37243;49.814;8.652;2022-12-18T01:54:54;101566.28;;;26.74;19.78
51178;BME280;37243;49.814;8.652;2022-12-18T01:57:26;101566.56;;;26.73;19.34
51178;BME280;37243;49.814;8.652;2022-12-18T01:59:59;101565.78;;;26.72;19.70
51178;BME280;37243;49.814;8.652;2022-12-18T02:02:28;101557.78;;;26.71;20.23
51178;BME280;37243;49.814;8.652;2022-12-18T02:04:57;101561.66;;;26.70;20.10
51178;BME280;37243;49.814;8.652;2022-12-18T02:07:36;101554.53;;;26.69;20.04
51178;BME280;37243;49.814;8.652;2022-12-18T02:10:12;101552.06;;;26.67;20.29
51178;BME280;37243;49.814;8.652;2022-12-18T02:12:48;101547.38;;;26.68;20.60
51178;BME280;37243;49.814;8.652;2022-12-18T02:15:26;101547.38;;;26.68;20.17
51178;BME280;37243;49.814;8.652;2022-12-18T02:17:59;101556.16;;;26.70;19.80
51178;BME280;37243;49.814;8.652;2022-12-18T02:20:34;101559.22;;;26.68;20.42
51178;BME280;37243;49.814;8.652;2022-12-18T02:23:13;101550.13;;;26.68;19.83
51178;BME280;37243;49.814;8.652;2022-12-18T02:26:02;101544.94;;;26.66;20.15
51178;BME280;37243;49.814;8.652;2022-12-18T02:28:37;101550.13;;;26.68;20.10
51178;BME280;37243;49.814;8.652;2022-12-18T02:31:13;101539.63;;;26.70;20.42
51178;BME280;37243;49.814;8.652;2022-12-18T02:33:44;101527.00;;;26.69;20.22
51178;BME280;37243;49.814;8.652;2022-12-18T02:36:15;101525.88;;;26.70;19.76
51178;BME280;37243;49.814;8.652;2022-12-18T02:38:45;101517.00;;;26.73;20.50
51178;BME280;37243;49.814;8.652;2022-12-18T02:41:17;101519.75;;;26.73;19.75
51178;BME280;37243;49.814;8.652;2022-12-18T02:43:56;101506.00;;;26.73;19.85
51178;BME280;37243;49.814;8.652;2022-12-18T02:46:31;101506.81;;;26.73;20.28
51178;BME280;37243;49.814;8.652;2022-12-18T02:49:06;101498.28;;;26.75;20.33
51178;BME280;37243;49.814;8.652;2022-12-18T02:51:43;101502.66;;;26.76;20.36
51178;BME280;37243;49.814;8.652;2022-12-18T02:54:24;101501.53;;;26.77;20.29
51178;BME280;37243;49.814;8.652;2022-12-18T02:57:04;101506.22;;;26.76;20.42
51178;BME280;37243;49.814;8.652;2022-12-18T02:59:41;101508.69;;;26.78;20.64
51178;BME280;37243;49.814;8.652;2022-12-18T03:02:21;101511.97;;;26.80;20.56
51178;BME280;37243;49.814;8.652;2022-12-18T03:04:56;101522.66;;;26.81;20.56
51178;BME280;37243;49.814;8.652;2022-12-18T03:07:33;101510.88;;;26.81;20.58
51178;BME280;37243;49.814;8.652;2022-12-18T03:10:05;101526.25;;;26.82;20.15
51178;BME280;37243;49.814;8.652;2022-12-18T03:12:41;101531.75;;;26.82;19.98
51178;BME280;37243;49.814;8.652;2022-12-18T03:15:14;101532.28;;;26.84;20.02
51178;BME280;37243;49.814;8.652;2022-12-18T03:17:49;101532.78;;;26.86;20.59
51178;BME280;37243;49.814;8.652;2022-12-18T03:20:21;101538.31;;;26.86;20.49
51178;BME280;37243;49.814;8.652;2022-12-18T03:22:53;101544.63;;;26.86;20.52
51178;BME280;37243;49.814;8.652;2022-12-18T03:25:25;101547.06;;;26.88;19.74
51178;BME280;37243;49.814;8.652;2022-12-18T03:27:58;101549.81;;;26.88;19.70
51178;BME280;37243;49.814;8.652;2022-12-18T03:30:30;101545.97;;;26.89;19.81
51178;BME280;37243;49.814;8.652;2022-12-18T03:33:06;101547.88;;;26.88;19.76
51178;BME280;37243;49.814;8.652;2022-12-18T03:35:38;101541.56;;;26.88;20.48
51178;BME280;37243;49.814;8.652;2022-12-18T03:38:08;101533.28;;;26.88;19.86
51178;BME280;37243;49.814;8.652;2022-12-18T03:40:44;101527.28;;;26.86;19.77
51178;BME280;37243;49.814;8.652;2022-12-18T03:43:20;101528.09;;;26.86;20.15
51178;BME280;37243;49.814;8.652;2022-12-18T03:45:58;101521.78;;;26.86;20.10
51178;BME280;37243;49.814;8.652;2022-12-18T03:48:33;101509.13;;;26.85;19.67
51178;BME280;37243;49.814;8.652;2022-12-18T03:51:08;101506.69;;;26.83;20.14
51178;BME280;37243;49.814;8.652;2022-12-18T03:53:42;101511.38;;;26.83;20.17
51178;BME280;37243;49.814;8.652;2022-12-18T03:56:14;101512.78;;;26.80;19.76
51178;BME280;37243;49.814;8.652;2022-12-18T03:58:47;101506.47;;;26.80;20.26
51178;BME280;37243;49.814;8.652;2022-12-18T04:01:19;101502.91;;;26.79;20.38
51178;BME280;37243;49.814;8.652;2022-12-18T04:03:50;101506.22;;;26.76;20.26
51178;BME280;37243;49.814;8.652;2022-12-18T04:06:19;101505.72;;;26.74;20.03
51178;BME280;37243;49.814;8.652;2022-12-18T04:08:48;101509.56;;;26.73;20.82
51178;BME280;37243;49.814;8.652;2022-12-18T04:11:16;101502.75;;;26.71;20.41
51178;BME280;37243;49.814;8.652;2022-12-18T04:13:47;101499.47;;;26.69;20.75
51178;BME280;37243;49.814;8.652;2022-12-18T04:16:16;101500.91;;;26.66;20.25
51178;BME280;37243;49.814;8.652;2022-12-18T04:18:44;101505.59;;;26.66;20.71
51178;BME280;37243;49.814;8.652;2022-12-18T04:21:12;101510.28;;;26.65;20.49
51178;BME280;37243;49.814;8.652;2022-12-18T04:23:40;101524.34;;;26.64;20.71
51178;BME280;37243;49.814;8.652;2022-12-18T04:26:15;101525.16;;;26.64;20.37
51178;BME280;37243;49.814;8.652;2022-12-18T04:28:43;101519.13;;;26.62;20.37
51178;BME280;37243;49.814;8.652;2022-12-18T04:31:14;101525.75;;;26.61;20.69
51178;BME280;37243;49.814;8.652;2022-12-18T04:33:42;101516.16;;;26.59;20.66
51178;BME280;37243;49.814;8.652;2022-12-18T04:36:10;101506.56;;;26.56;20.41
51178;BME280;37243;49.814;8.652;2022-12-18T04:38:39;101508.50;;;26.56;20.92
51178;BME280;37243;49.814;8.652;2022-12-18T04:41:08;101503.31;;;26.54;20.17
51178;BME280;37243;49.814;8.652;2022-12-18T04:43:38;101497.00;;;26.54;20.10
51178;BME280;37243;49.814;8.652;2022-12-18T04:46:07;101482.41;;;26.53;19.81
51178;BME280;37243;49.814;8.652;2022-12-18T04:48:38;101490.97;;;26.52;20.32
51178;BME280;37243;49.814;8.652;2022-12-18T04:51:07;101491.25;;;26.50;19.91
51178;BME280;37243;49.814;8.652;2022-12-18T04:53:35;101491.59;;;26.48;19.56
51178;BME280;37243;49.814;8.652;2022-12-18T04:56:05;101492.69;;;26.47;19.53
51178;BME280;37243;49.814;8.652;2022-12-18T04:58:34;101496.88;;;26.45;19.85
51178;BME280;37243;49.814;8.652;2022-12-18T05:01:02;101500.44;;;26.45;19.63
51178;BME280;37243;49.814;8.652;2022-12-18T05:03:31;101507.38;;;26.43;19.49
51178;BME280;37243;49.814;8.652;2022-12-18T05:06:02;101516.72;;;26.42;20.02
51178;BME280;37243;49.814;8.652;2022-12-18T05:08:31;101518.97;;;26.40;20.25
51178;BME280;37243;49.814;8.652;2022-12-18T05:11:00;101522.00;;;26.38;20.03
51178;BME280;37243;49.814;8.652;2022-12-18T05:13:28;101531.38;;;26.37;19.54
51178;BME280;37243;49.814;8.652;2022-12-18T05:15:57;101519.56;;;26.37;20.12
51178;BME280;37243;49.814;8.652;2022-12-18T05:18:25;101534.75;;;26.34;19.28
51178;BME280;37243;49.814;8.652;2022-12-18T05:20:54;101532.00;;;26.34;19.69
51178;BME280;37243;49.814;8.652;2022-12-18T05:23:26;101537.78;;;26.33;19.69
51178;BME280;37243;49.814;8.652;2022-12-18T05:25:56;101538.91;;;26.32;19.62
51178;BME280;37243;49.814;8.652;2022-12-18T05:28:26;101552.13;;;26.30;19.25
51178;BME280;37243;49.814;8.652;2022-12-18T05:30:57;101546.94;;;26.28;19.54
51178;BME280;37243;49.814;8.652;2022-12-18T05:33:28;101542.53;;;26.27;19.53
51178;BME280;37243;49.814;8.652;2022-12-18T05:35:58;101542.03;;;26.25;19.55
51178;BME280;37243;49.814;8.652;2022-12-18T05:38:33;101537.34;;;26.26;19.65
51178;BME280;37243;49.814;8.652;2022-12-18T05:41:03;101538.78;;;26.23;19.12
51178;BME280;37243;49.814;8.652;2022-12-18T05:43:33;101538.22;;;26.21;19.91
51178;BME280;37243;49.814;8.652;2022-12-18T05:46:04;101543.72;;;26.21;19.72
51178;BME280;37243;49.814;8.652;2022-12-18T05:48:32;101533.88;;;26.20;19.07
51178;BME280;37243;49.814;8.652;2022-12-18T05:51:06;101526.72;;;26.19;19.90
51178;BME280;37243;49.814;8.652;2022-12-18T05:53:37;101525.06;;;26.18;19.74
51178;BME280;37243;49.814;8.652;2022-12-18T05:56:07;101516.31;;;26.16;19.48
51178;BME280;37243;49.814;8.652;2022-12-18T05:58:36;101510.81;;;26.16;19.77
51178;BME280;37243;49.814;8.652;2022-12-18T06:01:09;101510.00;;;26.16;19.54
51178;BME280;37243;49.814;8.652;2022-12-18T06:03:38;101504.81;;;26.14;19.31
51178;BME280;37243;49.814;8.652;2022-12-18T06:06:13;101518.56;;;26.14;19.27
51178;BME280;37243;49.814;8.652;2022-12-18T06:08:44;101511.69;;;26.12;19.75
51178;BME280;37243;49.814;8.652;2022-12-18T06:11:12;101517.19;;;26.12;19.21
51178;BME280;37243;49.814;8.652;2022-12-18T06:13:41;101518.56;;;26.09;19.27
51178;BME280;37243;49.814;8.652;2022-12-18T06:16:09;101525.72;;;26.10;19.40
51178;BME280;37243;49.814;8.652;2022-12-18T06:18:38;101533.47;;;26.08;18.97
51178;BME280;37243;49.814;8.652;2022-12-18T06:21:06;101543.63;;;26.08;19.37
51178;BME280;37243;49.814;8.652;2022-12-18T06:23:35;101549.13;;;26.08;19.01
51178;BME280;37243;49.814;8.652;2022-12-18T06:26:07;101560.97;;;26.08;19.64
51178;BME280;37243;49.814;8.652;2022-12-18T06:28:36;101564.81;;;26.07;19.23
51178;BME280;37243;49.814;8.652;2022-12-18T06:31:05;101556.88;;;26.06;19.08
51178;BME280;37243;49.814;8.652;2022-12-18T06:33:34;101556.88;;;26.06;19.12
51178;BME280;37243;49.814;8.652;2022-12-18T06:36:05;101568.97;;;26.05;19.19
51178;BME280;37243;49.814;8.652;2022-12-18T06:38:34;101579.16;;;26.04;19.00
51178;BME280;37243;49.814;8.652;2022-12-18T06:41:09;101579.16;;;26.04;19.42
51178;BME280;37243;49.814;8.652;2022-12-18T06:43:37;101583.03;;;26.03;18.79
51178;BME280;37243;49.814;8.652;2022-12-18T06:46:06;101586.88;;;26.02;19.63
51178;BME280;37243;49.814;8.652;2022-12-18T06:48:34;101586.88;;;26.02;19.50
51178;BME280;37243;49.814;8.652;2022-12-18T06:51:03;101588.81;;;26.02;19.09
51178;BME280;37243;49.814;8.652;2022-12-18T06:53:32;101589.63;;;26.02;18.73
51178;BME280;37243;49.814;8.652;2022-12-18T06:56:01;101601.75;;;26.01;19.39
51178;BME280;37243;49.814;8.652;2022-12-18T06:58:32;101596.78;;;26.03;19.04
51178;BME280;37243;49.814;8.652;2022-12-18T07:01:00;101603.06;;;26.04;19.48
51178;BME280;37243;49.814;8.652;2022-12-18T07:03:29;101594.81;;;26.04;19.30
51178;BME280;37243;49.814;8.652;2022-12-18T07:05:57;101587.41;;;26.04;19.08
51178;BME280;37243;49.814;8.652;2022-12-18T07:08:25;101603.31;;;26.07;19.05
51178;BME280;37243;49.814;8.652;2022-12-18T07:10:54;101597.81;;;26.07;18.60
51178;BME280;37243;49.814;8.652;2022-12-18T07:13:23;101593.97;;;26.08;19.45
51178;BME280;37243;49.814;8.652;2022-12-18T07:15:54;101617.28;;;26.11;18.64
51178;BME280;37243;49.814;8.652;2022-12-18T07:18:22;101624.44;;;26.12;19.35
51178;BME280;37243;49.814;8.652;2022-12-18T07:20:51;101610.38;;;26.13;19.21
51178;BME280;37243;49.814;8.652;2022-12-18T07:23:19;101624.97;;;26.14;18.61
51178;BME280;37243;49.814;8.652;2022-12-18T07:25:47;101629.06;;;26.16;18.83
51178;BME280;37243;49.814;8.652;2022-12-18T07:28:15;101615.00;;;26.18;18.53
51178;BME280;37243;49.814;8.652;2022-12-18T07:30:44;101615.56;;;26.20;19.09
51178;BME280;37243;49.814;8.652;2022-12-18T07:33:15;101608.63;;;26.22;18.83
51178;BME280;37243;49.814;8.652;2022-12-18T07:35:43;101610.28;;;26.23;18.63
51178;BME280;37243;49.814;8.652;2022-12-18T07:38:11;101606.41;;;26.24;18.49
51178;BME280;37243;49.814;8.652;2022-12-18T07:40:40;101609.16;;;26.24;18.42
51178;BME280;37243;49.814;8.652;2022-12-18T07:43:08;101603.06;;;26.27;18.96
51178;BME280;37243;49.814;8.652;2022-12-18T07:45:36;101599.22;;;26.28;19.00
51178;BME280;37243;49.814;8.652;2022-12-18T07:48:06;101593.69;;;26.28;19.05
51178;BME280;37243;49.814;8.652;2022-12-18T07:50:37;101605.22;;;26.30;18.65
51178;BME280;37243;49.814;8.652;2022-12-18T07:53:05;101603.28;;;26.31;18.33
51178;BME280;37243;49.814;8.652;2022-12-18T07:55:34;101604.94;;;26.32;18.92
51178;BME280;37243;49.814;8.652;2022-12-18T07:58:03;101611.22;;;26.32;18.92
51178;BME280;37243;49.814;8.652;2022-12-18T08:00:31;101606.56;;;26.33;18.30
51178;BME280;37243;49.814;8.652;2022-12-18T08:02:59;101621.13;;;26.33;18.72
51178;BME280;37243;49.814;8.652;2022-12-18T08:05:28;101620.81;;;26.35;18.49
51178;BME280;37243;49.814;8.652;2022-12-18T08:07:58;101622.47;;;26.36;18.63
51178;BME280;37243;49.814;8.652;2022-12-18T08:10:27;101627.97;;;26.36;18.03
51178;BME280;37243;49.814;8.652;2022-12-18T08:12:55;101626.88;;;26.37;18.48
51178;BME280;37243;49.814;8.652;2022-12-18T08:15:23;101623.28;;;26.36;18.17
51178;BME280;37243;49.814;8.652;2022-12-18T08:17:52;101628.78;;;26.36;18.50
51178;BME280;37243;49.814;8.652;2022-12-18T08:20:20;101630.13;;;26.39;18.79
51178;BME280;37243;49.814;8.652;2022-12-18T08:22:48;101629.31;;;26.38;18.84
51178;BME280;37243;49.814;8.652;2022-12-18T08:25:19;101623.53;;;26.40;18.76
51178;BME280;37243;49.814;8.652;2022-12-18T08:27:47;101623.53;;;26.40;18.83
51178;BME280;37243;49.814;8.652;2022-12-18T08:30:16;101629.31;;;26.38;18.88
51178;BME280;37243;49.814;8.652;2022-12-18T08:32:44;101624.63;;;26.39;18.85
51178;BME280;37243;49.814;8.652;2022-12-18T08:35:14;101623.53;;;26.40;18.77
51178;BME280;37243;49.814;8.652;2022-12-18T08:37:42;101624.34;;;26.40;18.81
51178;BME280;37243;49.814;8.652;2022-12-18T08:40:11;101631.47;;;26.41;18.61
51178;BME280;37243;49.814;8.652;2022-12-18T08:42:42;101625.13;;;26.41;18.28
51178;BME280;37243;49.814;8.652;2022-12-18T08:45:23;101621.06;;;26.38;18.63
51178;BME280;37243;49.814;8.652;2022-12-18T08:47:51;101614.72;;;26.38;18.86
51178;BME280;37243;49.814;8.652;2022-12-18T08:50:19;101597.94;;;26.39;18.67
51178;BME280;37243;49.814;8.652;2022-12-18T08:52:48;101601.56;;;26.35;19.04
51178;BME280;37243;49.814;8.652;2022-12-18T08:55:16;101596.97;;;26.30;19.02
51178;BME280;37243;49.814;8.652;2022-12-18T08:57:50;101598.16;;;26.24;18.81
51178;BME280;37243;49.814;8.652;2022-12-18T09:00:18;101596.59;;;26.18;19.09
51178;BME280;37243;49.814;8.652;2022-12-18T09:02:47;101596.63;;;26.13;18.84
51178;BME280;37243;49.814;8.652;2022-12-18T09:05:15;101598.63;;;26.08;19.18
51178;BME280;37243;49.814;8.652;2022-12-18T09:07:43;101592.38;;;26.02;18.78
51178;BME280;37243;49.814;8.652;2022-12-18T09:10:12;101585.84;;;25.98;18.82
51178;BME280;37243;49.814;8.652;2022-12-18T09:12:40;101575.72;;;25.93;19.74
51178;BME280;37243;49.814;8.652;2022-12-18T09:15:11;101574.69;;;25.89;19.48
51178;BME280;37243;49.814;8.652;2022-12-18T09:17:42;101579.94;;;25.86;19.41
51178;BME280;37243;49.814;8.652;2022-12-18T09:20:10;101589.59;;;25.83;19.36
51178;BME280;37243;49.814;8.652;2022-12-18T09:22:38;101600.06;;;25.81;19.51
51178;BME280;37243;49.814;8.652;2022-12-18T09:25:07;101601.50;;;25.79;19.56
51178;BME280;37243;49.814;8.652;2022-12-18T09:27:35;101606.47;;;25.77;20.05
51178;BME280;37243;49.814;8.652;2022-12-18T09:30:06;101608.97;;;25.73;19.52
51178;BME280;37243;49.814;8.652;2022-12-18T09:32:37;101616.41;;;25.73;20.02
51178;BME280;37243;49.814;8.652;2022-12-18T09:35:06;101617.81;;;25.70;20.17
51178;BME280;37243;49.814;8.652;2022-12-18T09:37:34;101616.16;;;25.69;19.98
51178;BME280;37243;49.814;8.652;2022-12-18T09:40:04;101616.47;;;25.68;19.95
51178;BME280;37243;49.814;8.652;2022-12-18T09:42:32;101607.69;;;25.66;20.06
51178;BME280;37243;49.814;8.652;2022-12-18T09:45:02;101604.94;;;25.66;20.00
51178;BME280;37243;49.814;8.652;2022-12-18T09:47:37;101598.91;;;25.64;20.54
51178;BME280;37243;49.814;8.652;2022-12-18T09:50:19;101597.25;;;25.63;20.24
51178;BME280;37243;49.814;8.652;2022-12-18T09:52:56;101598.91;;;25.64;20.49
51178;BME280;37243;49.814;8.652;2022-12-18T09:55:29;101605.50;;;25.63;20.20
51178;BME280;37243;49.814;8.652;2022-12-18T09:58:02;101607.47;;;25.62;20.59
51178;BME280;37243;49.814;8.652;2022-12-18T10:00:32;101610.22;;;25.62;20.42
51178;BME280;37243;49.814;8.652;2022-12-18T10:03:09;101608.25;;;25.63;21.04
51178;BME280;37243;49.814;8.652;2022-12-18T10:05:46;101601.16;;;25.62;20.91
51178;BME280;37243;49.814;8.652;2022-12-18T10:08:22;101609.91;;;25.64;20.52
51178;BME280;37243;49.814;8.652;2022-12-18T10:10:53;101604.72;;;25.62;20.85
51178;BME280;37243;49.814;8.652;2022-12-18T10:13:31;101608.25;;;25.63;21.16
51178;BME280;37243;49.814;8.652;2022-12-18T10:16:09;101605.50;;;25.63;21.01
51178;BME280;37243;49.814;8.652;2022-12-18T10:19:01;101613.75;;;25.63;21.05
51178;BME280;37243;49.814;8.652;2022-12-18T10:21:39;101615.41;;;25.64;20.97
51178;BME280;37243;49.814;8.652;2022-12-18T10:24:16;101607.16;;;25.64;21.44
51178;BME280;37243;49.814;8.652;2022-12-18T10:26:49;101596.16;;;25.64;21.07
51178;BME280;37243;49.814;8.652;2022-12-18T10:29:18;101602.75;;;25.63;20.86
51178;BME280;37243;49.814;8.652;2022-12-18T10:31:47;101596.16;;;25.64;21.01
51178;BME280;37243;49.814;8.652;2022-12-18T10:34:18;101589.56;;;25.65;21.69
51178;BME280;37243;49.814;8.652;2022-12-18T10:36:47;101580.19;;;25.66;21.70
51178;BME280;37243;49.814;8.652;2022-12-18T10:39:16;101584.06;;;25.65;21.41
51178;BME280;37243;49.814;8.652;2022-12-18T10:41:45;101587.34;;;25.67;21.13
51178;BME280;37243;49.814;8.652;2022-12-18T10:44:18;101579.59;;;25.69;21.11
51178;BME280;37243;49.814;8.652;2022-12-18T10:46:49;101578.50;;;25.70;21.60
51178;BME280;37243;49.814;8.652;2022-12-18T10:49:23;101584.00;;;25.70;21.68
51178;BME280;37243;49.814;8.652;2022-12-18T10:52:05;101581.25;;;25.70;21.31
51178;BME280;37243;49.814;8.652;2022-12-18T10:54:34;101589.22;;;25.71;21.49
51178;BME280;37243;49.814;8.652;2022-12-18T10:57:27;101587.28;;;25.72;21.42
51178;BME280;37243;49.814;8.652;2022-12-18T11:00:00;101588.91;;;25.73;21.12
51178;BME280;37243;49.814;8.652;2022-12-18T11:02:34;101582.31;;;25.74;21.25
51178;BME280;37243;49.814;8.652;2022-12-18T11:05:24;101586.16;;;25.73;21.61
51178;BME280;37243;49.814;8.652;2022-12-18T11:07:52;101583.94;;;25.75;21.39
51178;BME280;37243;49.814;8.652;2022-12-18T11:10:25;101586.69;;;25.75;21.51
51178;BME280;37243;49.814;8.652;2022-12-18T11:12:54;101595.47;;;25.77;21.85
51178;BME280;37243;49.814;8.652;2022-12-18T11:15:27;101594.34;;;25.78;21.68
51178;BME280;37243;49.814;8.652;2022-12-18T11:17:56;101583.34;;;25.78;21.68
51178;BME280;37243;49.814;8.652;2022-12-18T11:20:31;101574.00;;;25.79;21.27
51178;BME280;37243;49.814;8.652;2022-12-18T11:23:03;101578.66;;;25.78;21.32
51178;BME280;37243;49.814;8.652;2022-12-18T11:25:33;101581.41;;;25.78;21.61
51178;BME280;37243;49.814;8.652;2022-12-18T11:28:03;101569.31;;;25.79;21.76
51178;BME280;37243;49.814;8.652;2022-12-18T11:30:33;101581.94;;;25.80;21.86
51178;BME280;37243;49.814;8.652;2022-12-18T11:33:04;101593.75;;;25.81;21.72
51178;BME280;37243;49.814;8.652;2022-12-18T11:35:44;101592.13;;;25.80;21.27
51178;BME280;37243;49.814;8.652;2022-12-18T11:38:20;101593.75;;;25.81;21.60
51178;BME280;37243;49.814;8.652;2022-12-18T11:40:54;101593.75;;;25.81;21.53
51178;BME280;37243;49.814;8.652;2022-12-18T11:43:27;101578.09;;;25.81;21.44
51178;BME280;37243;49.814;8.652;2022-12-18T11:46:02;101580.84;;;25.81;21.71
51178;BME280;37243;49.814;8.652;2022-12-18T11:48:35;101576.16;;;25.82;21.95
51178;BME280;37243;49.814;8.652;2022-12-18T11:51:12;101568.75;;;25.82;21.64
51178;BME280;37243;49.814;8.652;2022-12-18T11:53:44;101576.97;;;25.82;21.22
51178;BME280;37243;49.814;8.652;2022-12-18T11:56:26;101569.56;;;25.83;21.31
51178;BME280;37243;49.814;8.652;2022-12-18T11:59:03;101565.69;;;25.84;21.63
51178;BME280;37243;49.814;8.652;2022-12-18T12:01:45;101562.09;;;25.83;21.53
51178;BME280;37243;49.814;8.652;2022-12-18T12:04:46;101566.81;;;25.83;21.96
51178;BME280;37243;49.814;8.652;2022-12-18T12:07:31;101575.06;;;25.83;22.06
51178;BME280;37243;49.814;8.652;2022-12-18T12:10:14;101572.00;;;25.84;21.39
51178;BME280;37243;49.814;8.652;2022-12-18T12:12:55;101571.19;;;25.84;21.52
51178;BME280;37243;49.814;8.652;2022-12-18T12:15:36;101571.19;;;25.84;21.30
51178;BME280;37243;49.814;8.652;2022-12-18T12:18:22;101581.34;;;25.83;21.96
51178;BME280;37243;49.814;8.652;2022-12-18T12:21:01;101573.66;;;25.85;21.93
51178;BME280;37243;49.814;8.652;2022-12-18T12:23:40;101572.00;;;25.84;21.52
51178;BME280;37243;49.814;8.652;2022-12-18T12:26:12;101577.50;;;25.84;21.87
51178;BME280;37243;49.814;8.652;2022-12-18T12:28:53;101564.56;;;25.85;21.63
51178;BME280;37243;49.814;8.652;2022-12-18T12:31:33;101565.69;;;25.84;22.01
51178;BME280;37243;49.814;8.652;2022-12-18T12:34:15;101567.31;;;25.85;21.55
51178;BME280;37243;49.814;8.652;2022-12-18T12:37:04;101557.16;;;25.85;21.26
51178;BME280;37243;49.814;8.652;2022-12-18T12:39:38;101549.69;;;25.86;21.25
51178;BME280;37243;49.814;8.652;2022-12-18T12:42:13;101549.69;;;25.86;21.77
51178;BME280;37243;49.814;8.652;2022-12-18T12:44:58;101555.19;;;25.86;21.39
51178;BME280;37243;49.814;8.652;2022-12-18T12:47:32;101551.66;;;25.85;21.48
51178;BME280;37243;49.814;8.652;2022-12-18T12:50:06;101554.09;;;25.87;22.01
51178;BME280;37243;49.814;8.652;2022-12-18T12:52:42;101553.28;;;25.86;21.79
51178;BME280;37243;49.814;8.652;2022-12-18T12:55:19;101546.94;;;25.86;21.63
51178;BME280;37243;49.814;8.652;2022-12-18T12:57:59;101558.78;;;25.86;21.54
51178;BME280;37243;49.814;8.652;2022-12-18T13:00:36;101549.69;;;25.86;21.39
51178;BME280;37243;49.814;8.652;2022-12-18T13:03:13;101543.91;;;25.87;22.07
51178;BME280;37243;49.814;8.652;2022-12-18T13:05:50;101545.84;;;25.87;22.02
51178;BME280;37243;49.814;8.652;2022-12-18T13:08:24;101540.66;;;25.85;22.03
51178;BME280;37243;49.814;8.652;2022-12-18T13:10:57;101543.41;;;25.85;21.28
51178;BME280;37243;49.814;8.652;2022-12-18T13:13:48;101538.69;;;25.86;21.63
51178;BME280;37243;49.814;8.652;2022-12-18T13:16:19;101537.91;;;25.85;21.58